Time;durP1;ratioP1;P1;durP2;ratioP2;P2;SDS_P1;SDS_P2;PMS_P1;PMS_P2;Temp;Humidity;BMP_temperature;BMP_pressure;BME280_temperature;BME280_humidity;BME280_pressure;Samples;Min_cycle;Max_cycle;Signal;HPM_P1;HPM_P2
2022/10/08 00:01:18;;;;;;;10.55;4.00;;;;;;;;;;5032543;28;20034;-74
2022/10/08 00:03:45;;;;;;;9.57;3.97;;;;;;;;;;5032253;28;20025;-73
2022/10/08 00:06:14;;;;;;;10.57;4.80;;;;;;;;;;5032279;28;20393;-73
2022/10/08 00:08:41;;;;;;;9.35;4.68;;;;;;;;;;5032228;28;20425;-74
2022/10/08 00:11:09;;;;;;;6.75;4.07;;;;;;;;;;5032244;28;20467;-73
2022/10/08 00:13:39;;;;;;;7.28;4.32;;;;;;;;;;5032322;28;20148;-74
2022/10/08 00:16:11;;;;;;;8.00;5.00;;;;;;;;;;5047557;28;20026;-73
2022/10/08 00:18:38;;;;;;;8.80;4.80;;;;;;;;;;5031728;28;20029;-74
2022/10/08 00:21:10;;;;;;;10.23;4.88;;;;;;;;;;5032022;28;20040;-74
2022/10/08 00:23:36;;;;;;;9.07;4.22;;;;;;;;;;5036245;28;20022;-73
2022/10/08 00:26:05;;;;;;;8.82;4.85;;;;;;;;;;5036203;28;20029;-74
2022/10/08 00:28:35;;;;;;;7.65;4.90;;;;;;;;;;5036120;28;20500;-73
2022/10/08 00:31:09;;;;;;;6.95;4.85;;;;;;;;;;5035767;28;20092;-73
2022/10/08 00:33:37;;;;;;;11.65;5.32;;;;;;;;;;5036429;28;20021;-73
2022/10/08 00:36:08;;;;;;;10.55;5.32;;;;;;;;;;5035783;28;20029;-74
2022/10/08 00:38:34;;;;;;;;;;;;;;;;;;5036354;28;20466;-73
2022/10/08 00:41:01;;;;;;;5.57;4.38;;;;;;;;;;5035848;28;19919;-73
2022/10/08 00:43:42;;;;;;;11.57;5.05;;;;;;;;;;5036084;28;20039;-74
2022/10/08 00:46:22;;;;;;;8.98;4.93;;;;;;;;;;5035265;28;20017;-74
2022/10/08 00:48:50;;;;;;;8.00;4.53;;;;;;;;;;5035757;28;20020;-73
2022/10/08 00:51:17;;;;;;;6.55;4.60;;;;;;;;;;5035577;28;20024;-74
2022/10/08 00:53:43;;;;;;;10.77;5.30;;;;;;;;;;5035503;28;20028;-73
2022/10/08 00:56:09;;;;;;;10.48;4.70;;;;;;;;;;5035614;28;20025;-73
2022/10/08 00:58:37;;;;;;;10.32;5.85;;;;;;;;;;5035769;28;20075;-74
2022/10/08 01:01:03;;;;;;;8.80;5.47;;;;;;;;;;5034996;28;20524;-73
2022/10/08 01:03:30;;;;;;;12.85;5.13;;;;;;;;;;5035399;28;20026;-74
2022/10/08 01:06:15;;;;;;;10.93;5.70;;;;;;;;;;5035392;28;20027;-74
2022/10/08 01:08:41;;;;;;;9.25;5.45;;;;;;;;;;5035351;28;20055;-74
2022/10/08 01:11:18;;;;;;;10.85;5.15;;;;;;;;;;5035412;28;20021;-74
2022/10/08 01:13:48;;;;;;;7.57;4.85;;;;;;;;;;5050674;28;20048;-73
2022/10/08 01:16:47;;;;;;;10.50;5.07;;;;;;;;;;5035023;28;20029;-74
2022/10/08 01:19:30;;;;;;;10.70;5.75;;;;;;;;;;5013100;28;20050;-73
2022/10/08 01:22:17;;;;;;;11.80;5.28;;;;;;;;;;5013081;28;20034;-74
2022/10/08 01:27:57;;;;;;;13.70;6.43;;;;;;;;;;5012973;28;20039;-74
2022/10/08 01:30:23;;;;;;;10.15;5.85;;;;;;;;;;5012925;28;20028;-74
2022/10/08 01:32:56;;;;;;;6.50;5.72;;;;;;;;;;4996727;28;20026;-74
2022/10/08 01:35:32;;;;;;;9.77;5.25;;;;;;;;;;5012387;28;20473;-74
2022/10/08 01:38:00;;;;;;;9.30;5.95;;;;;;;;;;4996387;28;20034;-74
2022/10/08 01:40:29;;;;;;;9.10;5.80;;;;;;;;;;5010308;28;20041;-74
2022/10/08 01:42:56;;;;;;;10.52;5.43;;;;;;;;;;4993349;28;20039;-73
2022/10/08 01:45:24;;;;;;;10.32;5.35;;;;;;;;;;4992867;28;20034;-74
2022/10/08 01:47:51;;;;;;;11.63;5.88;;;;;;;;;;4976902;28;20038;-74
2022/10/08 01:50:27;;;;;;;9.98;5.40;;;;;;;;;;4993315;28;20104;-74
2022/10/08 01:52:58;;;;;;;11.75;5.25;;;;;;;;;;4993038;28;20022;-74
2022/10/08 01:55:29;;;;;;;7.45;4.95;;;;;;;;;;5009324;28;20037;-74
2022/10/08 01:57:59;;;;;;;8.55;5.43;;;;;;;;;;5033683;28;20030;-74
2022/10/08 02:00:25;;;;;;;7.88;5.20;;;;;;;;;;5034314;28;20040;-74
2022/10/08 02:02:54;;;;;;;9.82;4.93;;;;;;;;;;5034386;28;20501;-73
2022/10/08 02:05:21;;;;;;;13.00;5.90;;;;;;;;;;5034526;28;20036;-73
2022/10/08 02:07:48;;;;;;;9.75;5.45;;;;;;;;;;5034052;28;20079;-73
2022/10/08 02:10:17;;;;;;;6.30;5.20;;;;;;;;;;5034250;28;20026;-73
2022/10/08 02:12:44;;;;;;;9.50;4.78;;;;;;;;;;5033672;28;20038;-74
2022/10/08 02:15:16;;;;;;;11.57;5.47;;;;;;;;;;5034038;28;20030;-74
2022/10/08 02:18:06;;;;;;;13.40;5.35;;;;;;;;;;5049855;28;20041;-73
2022/10/08 02:20:40;;;;;;;10.00;5.72;;;;;;;;;;5034425;28;20035;-74
2022/10/08 02:23:13;;;;;;;9.50;5.68;;;;;;;;;;5034228;28;20021;-73
2022/10/08 02:25:45;;;;;;;10.38;5.78;;;;;;;;;;5033974;28;20386;-74
2022/10/08 02:28:32;;;;;;;8.02;5.38;;;;;;;;;;5033486;28;20022;-74
2022/10/08 02:31:03;;;;;;;16.98;5.65;;;;;;;;;;5033891;28;20033;-74
2022/10/08 02:33:36;;;;;;;7.75;5.15;;;;;;;;;;5033738;28;20040;-73
2022/10/08 02:36:04;;;;;;;11.23;5.10;;;;;;;;;;5033637;28;20025;-74
2022/10/08 02:38:33;;;;;;;7.80;5.10;;;;;;;;;;5034052;28;20033;-73
2022/10/08 02:41:00;;;;;;;10.15;5.35;;;;;;;;;;5033414;28;20388;-74
2022/10/08 02:43:30;;;;;;;8.60;5.70;;;;;;;;;;5033124;28;20029;-73
2022/10/08 02:46:00;;;;;;;11.15;5.30;;;;;;;;;;5033487;28;20033;-74
2022/10/08 02:48:30;;;;;;;7.97;5.55;;;;;;;;;;5033544;28;20030;-74
2022/10/08 02:50:59;;;;;;;7.50;5.43;;;;;;;;;;5033380;28;20028;-74
2022/10/08 02:53:26;;;;;;;8.57;5.30;;;;;;;;;;5033686;28;20021;-74
2022/10/08 02:56:19;;;;;;;7.93;5.40;;;;;;;;;;5032791;28;21590;-74
2022/10/08 02:58:45;;;;;;;7.85;5.95;;;;;;;;;;5032014;28;20453;-74
2022/10/08 03:01:25;;;;;;;8.50;6.10;;;;;;;;;;5032996;28;20037;-74
2022/10/08 03:04:10;;;;;;;7.03;6.00;;;;;;;;;;5033188;28;20136;-74
2022/10/08 03:06:36;;;;;;;12.40;6.20;;;;;;;;;;5033164;28;20397;-73
2022/10/08 03:09:05;;;;;;;12.98;6.07;;;;;;;;;;5033384;28;20021;-74
2022/10/08 03:11:32;;;;;;;9.45;6.97;;;;;;;;;;5032574;28;20398;-74
2022/10/08 03:13:59;;;;;;;15.68;6.43;;;;;;;;;;5032778;28;20422;-74
2022/10/08 03:16:31;;;;;;;9.13;6.55;;;;;;;;;;5033009;28;20017;-73
2022/10/08 03:18:59;;;;;;;12.57;6.80;;;;;;;;;;5032667;28;20034;-74
2022/10/08 03:21:27;;;;;;;7.88;5.80;;;;;;;;;;5032742;28;20055;-74
2022/10/08 03:23:53;;;;;;;10.57;6.10;;;;;;;;;;5033092;28;20024;-74
2022/10/08 03:26:19;;;;;;;10.65;5.85;;;;;;;;;;5031384;28;20075;-74
2022/10/08 03:28:46;;;;;;;7.97;5.63;;;;;;;;;;5033028;28;20021;-73
2022/10/08 03:31:12;;;;;;;8.48;6.00;;;;;;;;;;5032913;28;20029;-74
2022/10/08 03:33:38;;;;;;;9.40;5.95;;;;;;;;;;5032653;28;20475;-73
2022/10/08 03:36:05;;;;;;;12.05;6.20;;;;;;;;;;5032565;28;20033;-74
2022/10/08 03:38:33;;;;;;;8.00;5.35;;;;;;;;;;5032412;28;20035;-73
2022/10/08 03:40:59;;;;;;;7.07;5.18;;;;;;;;;;5047443;28;20030;-73
2022/10/08 03:43:30;;;;;;;7.70;5.40;;;;;;;;;;5031330;28;20029;-73
2022/10/08 03:45:56;;;;;;;12.73;6.13;;;;;;;;;;5031127;28;20025;-74
2022/10/08 03:48:23;;;;;;;10.98;5.80;;;;;;;;;;5032402;28;20029;-74
2022/10/08 03:50:53;;;;;;;11.95;5.97;;;;;;;;;;5032269;28;20025;-73
2022/10/08 03:53:20;;;;;;;8.35;5.72;;;;;;;;;;5032392;28;20033;-73
2022/10/08 03:55:46;;;;;;;13.48;5.68;;;;;;;;;;5031804;28;20375;-74
2022/10/08 03:58:13;;;;;;;9.07;5.22;;;;;;;;;;5031828;28;20029;-74
2022/10/08 04:00:40;;;;;;;6.82;4.70;;;;;;;;;;5032038;28;20064;-74
2022/10/08 04:03:06;;;;;;;10.02;4.90;;;;;;;;;;5032239;28;20481;-73
2022/10/08 04:05:33;;;;;;;9.90;5.28;;;;;;;;;;5032153;28;20032;-73
2022/10/08 04:07:59;;;;;;;9.73;5.32;;;;;;;;;;5031997;28;20021;-74
2022/10/08 04:10:25;;;;;;;9.27;5.00;;;;;;;;;;5031949;28;20033;-74
2022/10/08 04:12:52;;;;;;;7.32;4.88;;;;;;;;;;5032280;28;20042;-73
2022/10/08 04:15:19;;;;;;;8.40;5.07;;;;;;;;;;5031931;28;20047;-73
2022/10/08 04:17:45;;;;;;;11.93;5.10;;;;;;;;;;5032204;28;20039;-73
2022/10/08 04:20:11;;;;;;;9.35;4.85;;;;;;;;;;5032123;28;20434;-74
2022/10/08 04:22:38;;;;;;;8.35;5.28;;;;;;;;;;5031915;28;20026;-74
2022/10/08 04:25:04;;;;;;;7.05;5.00;;;;;;;;;;5031584;28;20028;-73
2022/10/08 04:27:36;;;;;;;6.38;5.30;;;;;;;;;;5031865;28;20024;-74
2022/10/08 04:30:02;;;;;;;8.13;5.35;;;;;;;;;;5032060;28;20035;-74
2022/10/08 04:32:28;;;;;;;12.35;5.55;;;;;;;;;;5032180;28;20028;-74
2022/10/08 04:34:55;;;;;;;8.35;5.47;;;;;;;;;;5047259;28;20029;-74
2022/10/08 04:37:21;;;;;;;6.10;5.18;;;;;;;;;;5031373;28;20017;-73
2022/10/08 04:39:47;;;;;;;7.55;5.63;;;;;;;;;;5031759;28;20513;-74
2022/10/08 04:42:14;;;;;;;5.85;5.30;;;;;;;;;;5031862;28;20018;-73
2022/10/08 04:44:40;;;;;;;7.45;5.38;;;;;;;;;;5031687;28;20021;-74
2022/10/08 04:47:07;;;;;;;8.82;5.70;;;;;;;;;;5031915;28;20040;-74
2022/10/08 04:49:33;;;;;;;10.50;5.40;;;;;;;;;;5030616;28;20409;-74
2022/10/08 04:51:59;;;;;;;10.98;5.85;;;;;;;;;;5031272;28;20026;-74
2022/10/08 04:54:25;;;;;;;9.65;5.22;;;;;;;;;;5031753;28;20030;-73
2022/10/08 04:56:52;;;;;;;10.77;6.57;;;;;;;;;;5031655;28;20024;-74
2022/10/08 04:59:18;;;;;;;8.23;5.40;;;;;;;;;;5031728;28;20082;-74
2022/10/08 05:01:44;;;;;;;7.95;5.20;;;;;;;;;;5031763;28;20036;-73
2022/10/08 05:04:11;;;;;;;8.50;6.10;;;;;;;;;;5031538;28;20048;-74
2022/10/08 05:06:37;;;;;;;9.88;6.35;;;;;;;;;;5031155;28;20026;-73
2022/10/08 05:09:03;;;;;;;8.88;5.63;;;;;;;;;;5033000;28;20022;-74
2022/10/08 05:11:30;;;;;;;8.70;5.53;;;;;;;;;;5035536;28;20027;-74
2022/10/08 05:13:57;;;;;;;9.50;5.90;;;;;;;;;;5035047;28;20044;-73
2022/10/08 05:16:24;;;;;;;12.52;5.93;;;;;;;;;;5035192;28;20040;-74
2022/10/08 05:18:51;;;;;;;10.50;5.70;;;;;;;;;;5035066;28;20075;-74
2022/10/08 05:21:18;;;;;;;10.07;5.47;;;;;;;;;;5034656;28;20029;-74
2022/10/08 05:23:45;;;;;;;11.80;5.53;;;;;;;;;;5035120;28;20017;-74
2022/10/08 05:26:11;;;;;;;10.07;5.45;;;;;;;;;;5034853;28;20505;-74
2022/10/08 05:28:38;;;;;;;7.53;4.75;;;;;;;;;;5050306;28;20026;-74
2022/10/08 05:31:04;;;;;;;6.20;3.88;;;;;;;;;;5035268;28;20032;-74
2022/10/08 05:33:30;;;;;;;8.23;4.78;;;;;;;;;;5034855;28;20021;-74
2022/10/08 05:35:57;;;;;;;8.07;4.13;;;;;;;;;;5034442;28;20079;-74
2022/10/08 05:38:23;;;;;;;7.50;3.80;;;;;;;;;;5034822;28;20028;-73
2022/10/08 05:40:50;;;;;;;6.95;4.10;;;;;;;;;;5034600;28;20047;-74
2022/10/08 05:43:16;;;;;;;11.23;3.78;;;;;;;;;;5034616;28;20029;-74
2022/10/08 05:45:48;;;;;;;4.28;3.17;;;;;;;;;;5035210;28;20038;-74
2022/10/08 05:48:15;;;;;;;8.73;3.13;;;;;;;;;;5034648;28;20013;-75
2022/10/08 05:50:41;;;;;;;4.47;2.97;;;;;;;;;;5034257;28;20405;-74
2022/10/08 05:53:07;;;;;;;4.47;2.80;;;;;;;;;;5033707;28;20026;-74
2022/10/08 05:55:34;;;;;;;3.97;2.17;;;;;;;;;;5034414;28;20026;-74
2022/10/08 05:58:00;;;;;;;5.38;2.20;;;;;;;;;;5034445;28;20028;-73
2022/10/08 06:00:26;;;;;;;4.07;2.47;;;;;;;;;;5034295;28;20033;-73
2022/10/08 06:02:53;;;;;;;3.90;2.38;;;;;;;;;;5034286;28;20397;-74
2022/10/08 06:05:19;;;;;;;4.28;2.40;;;;;;;;;;5049326;28;20025;-74
2022/10/08 06:07:45;;;;;;;7.10;2.53;;;;;;;;;;5034198;28;20440;-74
2022/10/08 06:10:12;;;;;;;6.43;2.10;;;;;;;;;;5034479;28;20025;-73
2022/10/08 06:12:38;;;;;;;6.78;2.20;;;;;;;;;;5034114;28;20025;-73
2022/10/08 06:15:05;;;;;;;3.60;2.10;;;;;;;;;;5033896;28;20379;-73
2022/10/08 06:17:31;;;;;;;3.25;1.98;;;;;;;;;;5034060;28;20022;-73
2022/10/08 06:19:57;;;;;;;8.00;2.30;;;;;;;;;;5033206;28;20087;-74
2022/10/08 06:22:23;;;;;;;4.93;1.85;;;;;;;;;;5034108;28;20022;-73
2022/10/08 06:24:50;;;;;;;2.78;2.03;;;;;;;;;;5033844;28;20025;-74
2022/10/08 06:27:16;;;;;;;2.30;1.60;;;;;;;;;;5033948;28;20036;-74
2022/10/08 06:29:43;;;;;;;5.10;1.90;;;;;;;;;;5033855;28;20022;-74
2022/10/08 06:32:09;;;;;;;2.55;1.80;;;;;;;;;;5033582;28;20025;-74
2022/10/08 06:34:35;;;;;;;4.93;1.80;;;;;;;;;;5033680;28;20034;-74
2022/10/08 06:37:02;;;;;;;5.95;1.80;;;;;;;;;;5033896;28;20588;-74
2022/10/08 06:39:28;;;;;;;3.83;1.92;;;;;;;;;;5033887;28;20025;-74
2022/10/08 06:41:54;;;;;;;3.97;1.80;;;;;;;;;;5033545;28;20494;-74
2022/10/08 06:44:21;;;;;;;6.78;1.77;;;;;;;;;;5033713;28;20494;-73
2022/10/08 06:46:47;;;;;;;4.05;1.67;;;;;;;;;;5033528;28;20033;-74
2022/10/08 06:49:13;;;;;;;3.40;1.50;;;;;;;;;;5033080;28;20029;-74
2022/10/08 06:51:40;;;;;;;3.88;1.58;;;;;;;;;;5033967;28;20017;-74
2022/10/08 06:54:06;;;;;;;1.90;1.60;;;;;;;;;;5032231;28;20035;-74
2022/10/08 06:56:34;;;;;;;4.45;1.80;;;;;;;;;;5033163;28;20014;-74
2022/10/08 06:59:01;;;;;;;8.45;1.90;;;;;;;;;;5033446;28;20044;-74
2022/10/08 07:01:28;;;;;;;6.47;1.73;;;;;;;;;;5033083;28;20049;-74
2022/10/08 07:03:55;;;;;;;4.68;1.50;;;;;;;;;;5032788;28;20029;-74
2022/10/08 07:06:22;;;;;;;2.85;1.40;;;;;;;;;;5033381;28;20033;-74
2022/10/08 07:08:55;;;;;;;3.83;1.60;;;;;;;;;;5032938;28;20018;-73
2022/10/08 07:11:22;;;;;;;4.35;1.60;;;;;;;;;;5033293;28;20021;-72
2022/10/08 07:13:48;;;;;;;5.13;1.38;;;;;;;;;;5032913;28;20049;-72
2022/10/08 07:16:16;;;;;;;4.72;1.60;;;;;;;;;;5032939;28;20536;-73
2022/10/08 07:18:43;;;;;;;3.58;1.20;;;;;;;;;;5032616;28;20040;-73
2022/10/08 07:21:11;;;;;;;4.15;1.50;;;;;;;;;;5032653;28;20036;-72
2022/10/08 07:23:37;;;;;;;4.47;1.50;;;;;;;;;;5032982;28;20416;-74
2022/10/08 07:26:11;;;;;;;3.33;1.65;;;;;;;;;;5032724;28;20036;-73
2022/10/08 07:28:38;;;;;;;5.80;1.45;;;;;;;;;;5032803;28;20029;-73
2022/10/08 07:31:05;;;;;;;3.40;1.65;;;;;;;;;;5032294;28;20030;-73
2022/10/08 07:33:32;;;;;;;6.15;2.00;;;;;;;;;;5032203;28;20052;-74
2022/10/08 07:36:05;;;;;;;2.95;1.85;;;;;;;;;;5032480;28;20024;-74
2022/10/08 07:38:31;;;;;;;4.80;1.30;;;;;;;;;;5032619;28;20033;-74
2022/10/08 07:40:58;;;;;;;2.33;1.60;;;;;;;;;;5047830;28;20055;-73
2022/10/08 07:43:24;;;;;;;4.32;1.60;;;;;;;;;;5032337;28;20051;-73
2022/10/08 07:45:51;;;;;;;2.53;1.40;;;;;;;;;;5032049;28;20021;-74
2022/10/08 07:48:18;;;;;;;4.57;1.60;;;;;;;;;;5032426;28;20027;-73
2022/10/08 07:50:45;;;;;;;2.22;1.60;;;;;;;;;;5032236;28;20521;-73
2022/10/08 07:53:11;;;;;;;4.18;1.85;;;;;;;;;;5032355;28;20025;-74
2022/10/08 07:55:38;;;;;;;2.38;1.73;;;;;;;;;;5032240;28;20037;-73
2022/10/08 07:58:05;;;;;;;6.93;1.73;;;;;;;;;;5032142;28;20017;-73
2022/10/08 08:00:31;;;;;;;5.07;1.30;;;;;;;;;;5031835;28;20041;-74
2022/10/08 08:02:58;;;;;;;2.47;1.23;;;;;;;;;;5032249;28;20028;-74
2022/10/08 08:05:24;;;;;;;3.58;1.35;;;;;;;;;;5032371;28;20037;-73
2022/10/08 08:07:50;;;;;;;2.25;1.15;;;;;;;;;;5032242;28;20026;-74
2022/10/08 08:10:17;;;;;;;2.13;1.30;;;;;;;;;;5032185;28;20029;-74
2022/10/08 08:12:43;;;;;;;3.05;1.35;;;;;;;;;;5032052;28;20516;-73
2022/10/08 08:15:10;;;;;;;3.63;1.50;;;;;;;;;;5031517;28;20429;-74
2022/10/08 08:17:36;;;;;;;3.55;1.30;;;;;;;;;;5032165;28;20352;-73
2022/10/08 08:20:04;;;;;;;3.78;1.30;;;;;;;;;;5032075;28;20053;-73
2022/10/08 08:22:30;;;;;;;3.67;1.00;;;;;;;;;;5032138;28;20030;-73
2022/10/08 08:24:56;;;;;;;5.60;1.70;;;;;;;;;;5032147;28;20027;-73
2022/10/08 08:27:23;;;;;;;2.85;1.02;;;;;;;;;;5032267;28;20044;-74
2022/10/08 08:29:49;;;;;;;5.22;1.40;;;;;;;;;;5031874;28;20013;-74
2022/10/08 08:32:15;;;;;;;4.38;1.40;;;;;;;;;;5032067;28;20029;-73
2022/10/08 08:34:42;;;;;;;1.70;1.02;;;;;;;;;;5032102;28;20029;-73
2022/10/08 08:37:08;;;;;;;3.30;1.35;;;;;;;;;;5031932;28;20437;-73
2022/10/08 08:39:34;;;;;;;2.72;1.02;;;;;;;;;;5032094;28;20021;-73
2022/10/08 08:42:04;;;;;;;3.05;1.25;;;;;;;;;;5031651;28;20025;-73
2022/10/08 08:44:32;;;;;;;2.25;1.20;;;;;;;;;;5035106;28;20033;-73
2022/10/08 08:47:04;;;;;;;1.75;1.10;;;;;;;;;;5035732;28;20022;-74
2022/10/08 08:49:32;;;;;;;2.78;1.20;;;;;;;;;;5035746;28;20475;-73
2022/10/08 08:52:00;;;;;;;5.22;1.73;;;;;;;;;;5035472;28;20421;-73
2022/10/08 08:54:27;;;;;;;2.75;1.30;;;;;;;;;;5035903;28;20021;-73
2022/10/08 08:56:53;;;;;;;2.72;1.40;;;;;;;;;;5035521;28;20036;-73
2022/10/08 08:59:26;;;;;;;3.35;1.33;;;;;;;;;;5035285;28;20028;-74
2022/10/08 09:01:54;;;;;;;6.95;1.48;;;;;;;;;;5035454;28;20029;-74
2022/10/08 09:04:40;;;;;;;5.45;1.58;;;;;;;;;;5035697;28;20043;-74
2022/10/08 09:07:08;;;;;;;7.57;1.30;;;;;;;;;;5035315;28;20025;-74
2022/10/08 09:10:04;;;;;;;5.20;1.25;;;;;;;;;;5035464;28;20032;-74
2022/10/08 09:12:37;;;;;;;1.65;1.10;;;;;;;;;;5049685;28;20475;-73
2022/10/08 09:15:05;;;;;;;3.08;1.20;;;;;;;;;;5034950;28;20456;-74
2022/10/08 09:17:32;;;;;;;3.90;1.17;;;;;;;;;;5035221;28;20032;-74
2022/10/08 09:19:59;;;;;;;2.45;1.30;;;;;;;;;;5035224;28;20029;-74
2022/10/08 09:22:27;;;;;;;4.32;0.95;;;;;;;;;;5035159;28;20018;-74
2022/10/08 09:24:59;;;;;;;3.28;1.17;;;;;;;;;;5035100;28;20033;-74
2022/10/08 09:27:25;;;;;;;1.80;1.25;;;;;;;;;;5034528;28;20371;-74
2022/10/08 09:29:51;;;;;;;2.42;1.05;;;;;;;;;;5034968;28;20486;-74
2022/10/08 09:32:18;;;;;;;4.70;1.10;;;;;;;;;;5050419;28;20447;-74
2022/10/08 09:34:47;;;;;;;1.48;1.00;;;;;;;;;;5035061;28;20024;-74
2022/10/08 09:37:21;;;;;;;4.60;1.00;;;;;;;;;;5034913;28;20032;-74
2022/10/08 09:40:06;;;;;;;2.40;0.95;;;;;;;;;;5034763;28;20030;-74
2022/10/08 09:42:32;;;;;;;2.90;1.10;;;;;;;;;;5034594;28;20021;-74
2022/10/08 09:45:02;;;;;;;5.75;1.25;;;;;;;;;;5034710;28;20029;-74
2022/10/08 09:47:32;;;;;;;2.63;1.23;;;;;;;;;;5034895;28;20039;-74
2022/10/08 09:50:06;;;;;;;1.25;1.10;;;;;;;;;;5034466;28;20027;-74
2022/10/08 09:52:33;;;;;;;2.03;1.10;;;;;;;;;;5033446;28;20554;-74
2022/10/08 09:55:15;;;;;;;1.88;0.93;;;;;;;;;;5033730;28;20029;-75
2022/10/08 09:57:46;;;;;;;2.38;1.27;;;;;;;;;;5034056;28;20041;-74
2022/10/08 10:00:24;;;;;;;1.20;1.10;;;;;;;;;;5034402;28;20474;-74
2022/10/08 10:02:54;;;;;;;2.13;0.98;;;;;;;;;;5034310;28;20039;-74
2022/10/08 10:05:23;;;;;;;1.58;1.02;;;;;;;;;;5034378;28;20483;-73
2022/10/08 10:07:50;;;;;;;0.80;0.80;;;;;;;;;;5034092;28;20386;-74
2022/10/08 10:10:32;;;;;;;2.88;1.10;;;;;;;;;;5034311;28;20030;-73
2022/10/08 10:13:02;;;;;;;2.47;1.00;;;;;;;;;;5033721;28;20525;-74
2022/10/08 10:15:28;;;;;;;;;;;;;;;;;;5034438;28;20044;-74
2022/10/08 10:18:00;;;;;;;1.15;1.00;;;;;;;;;;5034111;28;19909;-75
2022/10/08 10:20:29;;;;;;;2.55;1.20;;;;;;;;;;5034087;28;20086;-74
2022/10/08 10:22:59;;;;;;;2.28;1.02;;;;;;;;;;5034034;28;20009;-75
2022/10/08 10:25:41;;;;;;;2.67;0.82;;;;;;;;;;5033716;28;20037;-75
2022/10/08 10:28:12;;;;;;;5.30;1.52;;;;;;;;;;5033847;28;20482;-74
2022/10/08 10:30:46;;;;;;;5.18;1.15;;;;;;;;;;5033863;28;20028;-75
2022/10/08 10:33:19;;;;;;;2.25;1.10;;;;;;;;;;5033803;28;20044;-74
2022/10/08 10:35:52;;;;;;;1.77;1.10;;;;;;;;;;5034103;28;20026;-75
2022/10/08 10:38:21;;;;;;;7.38;1.10;;;;;;;;;;5034050;28;20025;-74
2022/10/08 10:41:09;;;;;;;1.63;1.00;;;;;;;;;;5033113;28;20079;-74
2022/10/08 10:43:41;;;;;;;5.28;1.25;;;;;;;;;;5033606;28;20372;-73
2022/10/08 10:46:07;;;;;;;3.03;1.10;;;;;;;;;;5033485;28;20056;-74
2022/10/08 10:48:34;;;;;;;1.65;1.20;;;;;;;;;;5033763;28;20032;-74
2022/10/08 10:51:10;;;;;;;3.15;1.25;;;;;;;;;;5033426;28;20031;-75
2022/10/08 10:53:54;;;;;;;3.38;1.17;;;;;;;;;;5033765;28;20031;-74
2022/10/08 10:56:21;;;;;;;1.80;1.17;;;;;;;;;;5035166;28;20033;-75
2022/10/08 10:59:08;;;;;;;2.53;1.15;;;;;;;;;;5033228;28;20425;-74
2022/10/08 11:01:37;;;;;;;3.75;1.30;;;;;;;;;;5033216;28;20034;-74
2022/10/08 11:04:08;;;;;;;2.75;1.50;;;;;;;;;;5033222;28;20025;-74
2022/10/08 11:06:44;;;;;;;2.13;1.08;;;;;;;;;;5032366;28;20028;-74
2022/10/08 11:09:28;;;;;;;5.43;1.38;;;;;;;;;;5033060;28;20025;-74
2022/10/08 11:11:59;;;;;;;2.97;1.25;;;;;;;;;;5033039;28;20393;-74
2022/10/08 11:14:38;;;;;;;2.50;1.35;;;;;;;;;;5033063;28;20049;-73
2022/10/08 11:17:13;;;;;;;3.38;1.10;;;;;;;;;;5033052;28;20030;-74
2022/10/08 11:19:39;;;;;;;4.82;1.60;;;;;;;;;;5032919;28;20032;-74
2022/10/08 11:22:32;;;;;;;1.95;1.10;;;;;;;;;;5033044;28;20040;-74
2022/10/08 11:25:04;;;;;;;2.78;1.40;;;;;;;;;;5030701;28;20037;-74
2022/10/08 11:27:39;;;;;;;2.17;1.10;;;;;;;;;;5032865;28;20039;-74
2022/10/08 11:30:13;;;;;;;5.30;1.60;;;;;;;;;;5032860;28;20033;-74
2022/10/08 11:32:41;;;;;;;1.52;1.05;;;;;;;;;;5032743;28;20026;-74
2022/10/08 11:35:26;;;;;;;3.50;1.58;;;;;;;;;;5032782;28;20090;-74
2022/10/08 11:38:07;;;;;;;2.78;1.35;;;;;;;;;;5032194;28;20041;-75
2022/10/08 11:40:39;;;;;;;5.13;1.92;;;;;;;;;;5032436;28;20039;-74
2022/10/08 11:43:11;;;;;;;3.38;1.58;;;;;;;;;;5032638;28;20505;-73
2022/10/08 11:45:38;;;;;;;4.22;1.73;;;;;;;;;;5031296;28;20028;-74
2022/10/08 11:48:23;;;;;;;3.55;1.63;;;;;;;;;;5032390;28;20029;-75
2022/10/08 11:50:50;;;;;;;5.10;1.70;;;;;;;;;;5032495;28;20048;-75
2022/10/08 11:53:26;;;;;;;3.33;1.60;;;;;;;;;;5031879;28;20017;-74
2022/10/08 11:55:52;;;;;;;4.60;1.40;;;;;;;;;;5032086;28;20013;-75
2022/10/08 11:58:29;;;;;;;3.63;1.30;;;;;;;;;;5032459;28;20036;-75
2022/10/08 12:01:04;;;;;;;3.38;1.40;;;;;;;;;;5032325;28;20486;-75
2022/10/08 12:03:32;;;;;;;3.97;1.48;;;;;;;;;;5047517;28;20051;-74
2022/10/08 12:06:18;;;;;;;4.55;1.77;;;;;;;;;;5032296;28;20047;-75
2022/10/08 12:08:52;;;;;;;4.10;1.67;;;;;;;;;;5031722;28;20032;-75
2022/10/08 12:11:34;;;;;;;5.13;1.70;;;;;;;;;;5032593;28;20510;-74
2022/10/08 12:14:16;;;;;;;5.20;1.67;;;;;;;;;;5047567;28;20528;-75
2022/10/08 12:16:48;;;;;;;5.75;1.33;;;;;;;;;;5032204;28;20025;-75
2022/10/08 12:22:03;;;;;;;8.73;2.10;;;;;;;;;;5031877;28;20041;-74
2022/10/08 12:24:39;;;;;;;5.55;1.60;;;;;;;;;;5031910;28;20028;-75
2022/10/08 12:27:17;;;;;;;4.93;1.48;;;;;;;;;;5032224;28;20031;-75
2022/10/08 12:29:58;;;;;;;5.45;1.70;;;;;;;;;;5032064;28;20437;-75
2022/10/08 12:32:26;;;;;;;5.22;1.60;;;;;;;;;;5032052;28;20025;-75
2022/10/08 12:34:52;;;;;;;6.07;1.85;;;;;;;;;;5030700;28;20044;-75
2022/10/08 12:37:21;;;;;;;10.15;1.95;;;;;;;;;;5031812;28;20039;-75
2022/10/08 12:39:48;;;;;;;11.02;2.15;;;;;;;;;;5031768;28;20024;-75
2022/10/08 12:42:20;;;;;;;6.20;1.75;;;;;;;;;;5033593;28;20075;-75
2022/10/08 12:44:55;;;;;;;6.80;1.92;;;;;;;;;;5031954;28;20032;-75
2022/10/08 12:47:26;;;;;;;8.68;1.90;;;;;;;;;;5031736;28;20059;-75
2022/10/08 12:49:56;;;;;;;7.50;1.77;;;;;;;;;;5031801;28;20386;-74
2022/10/08 12:52:22;;;;;;;;;;;;;;;;;;5031937;28;20043;-74
2022/10/08 12:54:50;;;;;;;8.95;1.80;;;;;;;;;;5031683;28;19911;-74
2022/10/08 12:57:37;;;;;;;13.95;2.38;;;;;;;;;;5031829;28;20023;-75
2022/10/08 13:00:19;;;;;;;9.73;2.53;;;;;;;;;;5031611;28;20409;-75
2022/10/08 13:02:58;;;;;;;9.80;2.30;;;;;;;;;;5031767;28;20025;-75
2022/10/08 13:05:26;;;;;;;8.85;2.00;;;;;;;;;;5031468;28;20028;-75
2022/10/08 13:07:52;;;;;;;16.15;2.33;;;;;;;;;;5031643;28;20025;-75
2022/10/08 13:10:21;;;;;;;11.05;2.05;;;;;;;;;;5031929;28;20021;-75
2022/10/08 13:12:59;;;;;;;11.90;2.22;;;;;;;;;;5031531;28;20052;-74
2022/10/08 13:15:26;;;;;;;13.70;2.45;;;;;;;;;;5031471;28;20060;-75
2022/10/08 13:17:52;;;;;;;8.55;2.28;;;;;;;;;;5031679;28;20024;-75
2022/10/08 13:20:20;;;;;;;8.25;2.08;;;;;;;;;;5031544;28;20036;-74
2022/10/08 13:22:47;;;;;;;13.73;2.28;;;;;;;;;;5031816;28;20455;-75
2022/10/08 13:25:46;;;;;;;10.32;1.75;;;;;;;;;;5031280;28;20055;-75
2022/10/08 13:28:14;;;;;;;9.52;1.70;;;;;;;;;;5009466;28;20030;-75
2022/10/08 13:30:41;;;;;;;7.15;2.20;;;;;;;;;;5011444;28;20414;-75
2022/10/08 13:33:12;;;;;;;7.30;2.00;;;;;;;;;;5013039;28;20391;-75
2022/10/08 13:35:39;;;;;;;12.60;2.80;;;;;;;;;;5012708;28;20410;-75
2022/10/08 13:38:07;;;;;;;10.95;2.13;;;;;;;;;;5013044;28;20132;-75
2022/10/08 13:40:34;;;;;;;10.00;2.05;;;;;;;;;;5009795;28;20045;-75
2022/10/08 13:43:00;;;;;;;7.72;1.98;;;;;;;;;;4993363;28;20035;-75
2022/10/08 13:45:28;;;;;;;9.10;1.75;;;;;;;;;;4993122;28;20050;-74
2022/10/08 13:47:55;;;;;;;7.03;2.22;;;;;;;;;;4993518;28;20023;-75
2022/10/08 13:50:21;;;;;;;9.00;2.15;;;;;;;;;;4992856;28;20499;-74
2022/10/08 13:52:54;;;;;;;8.38;2.22;;;;;;;;;;4993054;28;20034;-74
2022/10/08 13:55:24;;;;;;;14.25;2.03;;;;;;;;;;4992866;28;20542;-75
2022/10/08 13:57:51;;;;;;;9.27;1.67;;;;;;;;;;5011613;28;20550;-74
2022/10/08 14:00:17;;;;;;;7.38;1.88;;;;;;;;;;5012476;28;20052;-74
2022/10/08 14:02:44;;;;;;;5.70;1.70;;;;;;;;;;5014175;28;20030;-75
2022/10/08 14:05:10;;;;;;;7.22;1.77;;;;;;;;;;5034532;28;20233;-74
2022/10/08 14:07:37;;;;;;;10.18;1.88;;;;;;;;;;5049826;28;20033;-75
2022/10/08 14:10:03;;;;;;;7.50;1.38;;;;;;;;;;5034263;28;20017;-75
2022/10/08 14:12:31;;;;;;;7.47;1.90;;;;;;;;;;5049496;28;20405;-74
2022/10/08 14:14:58;;;;;;;5.68;1.30;;;;;;;;;;5034112;28;20401;-75
2022/10/08 14:17:24;;;;;;;7.57;1.80;;;;;;;;;;5033626;28;20027;-75
2022/10/08 14:19:53;;;;;;;15.00;1.88;;;;;;;;;;5033952;28;20021;-74
2022/10/08 14:22:19;;;;;;;6.93;1.80;;;;;;;;;;5034324;28;20026;-74
2022/10/08 14:24:45;;;;;;;7.10;1.98;;;;;;;;;;5034000;28;20030;-74
2022/10/08 14:27:12;;;;;;;10.30;1.85;;;;;;;;;;5033937;28;20449;-74
2022/10/08 14:29:38;;;;;;;12.75;2.10;;;;;;;;;;5034249;28;20028;-75
2022/10/08 14:32:07;;;;;;;3.97;1.38;;;;;;;;;;5033482;28;20024;-75
2022/10/08 14:34:33;;;;;;;11.88;2.30;;;;;;;;;;5033782;28;20022;-75
2022/10/08 14:37:00;;;;;;;7.82;2.17;;;;;;;;;;5033677;28;20091;-74
2022/10/08 14:39:27;;;;;;;10.55;1.83;;;;;;;;;;5033980;28;20021;-75
2022/10/08 14:41:53;;;;;;;9.57;1.90;;;;;;;;;;5033284;28;20060;-75
2022/10/08 14:44:23;;;;;;;10.50;1.88;;;;;;;;;;5033637;28;20029;-74
2022/10/08 14:46:52;;;;;;;5.38;1.75;;;;;;;;;;5033373;28;20566;-74
2022/10/08 14:49:18;;;;;;;6.97;1.88;;;;;;;;;;5033504;28;20018;-74
2022/10/08 14:51:45;;;;;;;6.47;1.90;;;;;;;;;;5033604;28;20036;-74
2022/10/08 14:54:11;;;;;;;14.10;2.28;;;;;;;;;;5033580;28;20026;-74
2022/10/08 14:56:38;;;;;;;10.30;1.88;;;;;;;;;;5033279;28;20021;-74
2022/10/08 14:59:05;;;;;;;6.70;1.88;;;;;;;;;;5033424;28;20021;-74
2022/10/08 15:01:31;;;;;;;16.67;2.25;;;;;;;;;;5032833;28;20033;-74